Time;durP1;ratioP1;P1;durP2;ratioP2;P2;SDS_P1;SDS_P2;PMS_P1;PMS_P2;Temp;Humidity;BMP_temperature;BMP_pressure;BME280_temperature;BME280_humidity;BME280_pressure;Samples;Min_cycle;Max_cycle;Signal;HPM_P1;HPM_P2
2023/08/11 00:01:02;;;;;;;8.32;1.25;;;10.60;99.90;;;9.35;97.59;101699.75;4780854;29;20037;-87
2023/08/11 00:03:32;;;;;;;5.55;1.10;;;;;;;9.29;96.48;101693.78;4878995;23;20050;-88
2023/08/11 00:06:07;;;;;;;10.98;1.70;;;;;;;9.23;95.77;101694.81;4868294;29;20069;-87
2023/08/11 00:08:36;;;;;;;11.88;1.23;;;;;;;9.20;95.67;101706.25;4882271;28;20050;-84
2023/08/11 00:12:02;;;;;;;9.93;2.35;;;10.30;99.90;;;9.20;96.33;101700.13;4854766;28;20038;-84
2023/08/11 00:15:10;;;;;;;5.13;1.38;;;10.30;99.90;;;9.15;97.06;101705.50;4794504;29;20042;-87
2023/08/11 00:17:39;;;;;;;16.42;2.13;;;;;;;9.16;98.89;101709.88;4788832;29;20183;-84
2023/08/11 00:20:14;;;;;;;10.65;2.00;;;10.40;99.90;;;9.21;100.00;101710.59;4851346;29;20044;-87
2023/08/11 00:22:39;;;;;;;14.35;2.25;;;10.30;99.90;;;9.22;100.00;101709.72;4833725;29;20494;-87
2023/08/11 00:25:35;;;;;;;11.70;2.00;;;10.30;99.90;;;9.26;100.00;101707.00;4805097;29;20120;-84
2023/08/11 00:28:00;;;;;;;9.63;1.52;;;10.40;99.90;;;9.23;100.00;101707.94;4770759;29;20042;-84
2023/08/11 00:31:04;;;;;;;;;;;;;;;;;;;;;
2023/08/11 00:33:33;;;;;;;9.80;1.35;;;10.30;99.90;;;9.14;100.00;101705.56;4775660;29;20630;-85
2023/08/11 00:36:02;;;;;;;12.13;2.15;;;;;;;9.12;100.00;101705.59;4747523;29;20896;-85
2023/08/11 00:38:40;;;;;;;16.27;2.80;;;;;;;9.13;100.00;101709.06;4790590;29;20054;-85
2023/08/11 00:41:21;;;;;;;12.45;2.40;;;;;;;9.12;100.00;101704.72;4785347;29;20086;-85
2023/08/11 00:43:58;;;;;;;15.38;2.85;;;;;;;9.10;100.00;101699.50;4953942;23;20048;-84
2023/08/11 00:46:42;;;;;;;20.08;3.22;;;;;;;9.14;100.00;101700.31;4944041;28;20047;-85
2023/08/11 00:49:32;;;;;;;24.85;3.53;;;10.30;99.90;;;9.17;100.00;101702.84;4903893;28;20203;-85
2023/08/11 00:52:03;;;;;;;16.73;2.30;;;10.40;99.90;;;9.24;100.00;101707.03;4895823;28;20495;-85
2023/08/11 00:54:41;;;;;;;6.82;1.95;;;;;;;9.24;100.00;101713.19;4865284;28;20186;-85
2023/08/11 00:57:17;;;;;;;;;;;;;;;;;;;;;
2023/08/11 00:59:44;;;;;;;6.07;1.20;;;;;;;9.27;100.00;101706.97;4864624;28;20039;-85
2023/08/11 01:02:11;;;;;;;2.75;0.60;;;10.40;99.90;;;9.26;100.00;101709.63;4877697;23;20059;-84
2023/08/11 01:04:49;;;;;;;1.88;0.70;;;;;;;9.20;100.00;101716.78;4875422;29;20036;-84
2023/08/11 01:07:41;;;;;;;4.10;0.90;;;10.40;99.90;;;9.16;100.00;101712.50;4894944;28;20426;-83
2023/08/11 01:11:30;;;;;;;5.65;0.63;;;10.30;99.90;;;9.17;99.66;101708.09;4916621;28;20039;-84
2023/08/11 01:14:41;;;;;;;9.07;2.10;;;10.30;99.90;;;9.24;98.92;101705.28;4869070;28;20040;-84
2023/08/11 01:17:20;;;;;;;14.20;1.90;;;10.40;99.90;;;9.28;99.15;101702.56;4823541;29;20051;-84
2023/08/11 01:20:30;;;;;;;4.10;1.27;;;;;;;9.40;99.65;101712.78;4794871;29;20080;-85
2023/08/11 01:23:10;;;;;;;10.50;1.67;;;10.60;99.90;;;9.48;99.83;101713.44;4906871;23;20047;-85
2023/08/11 01:26:11;;;;;;;15.98;3.25;;;10.70;99.90;;;9.60;100.00;101710.47;4843480;29;20047;-84
2023/08/11 01:29:01;;;;;;;13.32;2.50;;;10.70;99.90;;;9.75;100.00;101719.72;4892197;28;20078;-85
2023/08/11 01:31:31;;;;;;;12.38;2.25;;;;;;;9.83;100.00;101712.47;4878086;28;20095;-85
2023/08/11 01:34:22;;;;;;;10.23;2.03;;;;;;;9.93;100.00;101712.22;4836765;29;20032;-85
2023/08/11 01:45:51;;;;;;;9.68;1.80;;;;;;;10.25;100.00;101703.41;4826387;29;20041;-85
2023/08/11 01:49:00;;;;;;;7.20;1.92;;;11.30;99.90;;;10.30;100.00;101701.50;4839051;29;20072;-84
2023/08/11 01:51:29;;;;;;;15.20;2.13;;;;;;;10.33;100.00;101706.69;4732243;29;20052;-85
2023/08/11 01:54:22;;;;;;;18.95;3.35;;;;;;;10.40;100.00;101704.75;4719878;29;20122;-84
2023/08/11 01:57:01;;;;;;;12.55;2.30;;;11.50;99.90;;;10.43;100.00;101705.53;4755511;29;20520;-84
2023/08/11 01:59:30;;;;;;;9.13;2.30;;;;;;;10.46;100.00;101704.56;4712590;29;20049;-84
2023/08/11 02:02:22;;;;;;;17.50;2.80;;;;;;;10.50;100.00;101706.19;4719197;30;20089;-82
2023/08/11 02:04:51;;;;;;;8.98;2.45;;;;;;;10.56;100.00;101706.00;4707246;29;20064;-87
2023/08/11 02:07:31;;;;;;;14.10;3.28;;;;;;;10.61;100.00;101713.75;4708973;30;20067;-85
2023/08/11 02:10:04;;;;;;;13.55;3.60;;;;;;;10.64;100.00;101709.25;4682757;30;20052;-83
2023/08/11 02:12:31;;;;;;;11.32;3.50;;;;;;;10.69;100.00;101703.84;4694014;30;20210;-84
2023/08/11 02:15:31;;;;;;;9.27;2.60;;;11.80;99.90;;;10.74;100.00;101712.47;4712976;30;20037;-85
2023/08/11 02:18:24;;;;;;;13.18;3.03;;;;;;;10.79;100.00;101710.53;4698251;30;20413;-85
2023/08/11 02:21:07;;;;;;;17.17;3.03;;;;;;;10.83;100.00;101714.81;4677974;30;20712;-84
2023/08/11 02:26:42;;;;;;;13.55;2.50;;;;;;;10.91;100.00;101711.03;4688920;30;20126;-84
2023/08/11 02:29:32;;;;;;;10.35;2.47;;;12.00;99.90;;;10.95;100.00;101705.66;4726361;29;20067;-84
2023/08/11 02:32:03;;;;;;;8.38;1.95;;;12.00;99.90;;;10.93;100.00;101693.41;4743416;29;20043;-85
2023/08/11 02:34:41;;;;;;;12.77;2.33;;;;;;;10.93;100.00;101704.84;4728502;29;20051;-84
2023/08/11 02:37:08;;;;;;;12.35;2.03;;;;;;;10.91;100.00;101698.75;4804153;29;20052;-84
2023/08/11 02:39:44;;;;;;;7.45;1.55;;;;;;;10.87;100.00;101708.53;4774728;29;20034;-84
2023/08/11 02:42:12;;;;;;;11.07;1.80;;;11.90;99.90;;;10.77;100.00;101709.72;4780497;29;20089;-84
2023/08/11 02:45:00;;;;;;;9.63;2.30;;;;;;;10.69;100.00;101711.75;4757959;29;20122;-84
2023/08/11 02:47:31;;;;;;;11.57;2.63;;;11.80;99.90;;;10.62;100.00;101710.22;4787449;29;20046;-85
2023/08/11 02:50:24;;;;;;;13.43;2.70;;;11.60;99.90;;;10.51;100.00;101701.78;4751916;29;20042;-84
2023/08/11 02:52:52;;;;;;;8.30;1.77;;;;;;;10.43;100.00;101716.06;4749605;29;20400;-84
2023/08/11 02:55:29;;;;;;;8.40;2.15;;;;;;;10.36;100.00;101701.31;4818837;29;20417;-85
2023/08/11 02:57:55;;;;;;;8.63;2.17;;;11.50;99.90;;;10.30;100.00;101700.66;4816792;29;20061;-84
2023/08/11 03:00:50;;;;;;;6.10;1.80;;;11.40;99.90;;;10.26;100.00;101705.13;4818703;29;20527;-84
2023/08/11 03:03:31;;;;;;;17.70;2.00;;;11.30;99.90;;;10.14;100.00;101695.81;4747607;29;20084;-84
2023/08/11 03:06:27;;;;;;;11.13;2.30;;;;;;;10.12;100.00;101694.13;4810957;29;20037;-85
2023/08/11 03:09:02;;;;;;;9.88;2.85;;;11.30;99.90;;;10.03;100.00;101688.22;4753973;29;20046;-84
2023/08/11 03:11:41;;;;;;;;;;;;;;;;;;;;;
2023/08/11 03:14:23;;;;;;;9.90;3.05;;;;;;;9.98;100.00;101694.56;4748002;29;20394;-85
2023/08/11 03:17:05;;;;;;;20.25;3.30;;;;;;;9.95;100.00;101690.22;4757183;29;20043;-85
2023/08/11 03:19:42;;;;;;;9.27;3.38;;;;;;;9.92;100.00;101694.72;4778065;29;20144;-84
2023/08/11 03:22:11;;;;;;;15.30;3.08;;;;;;;9.88;100.00;101699.19;4774981;29;20039;-84
2023/08/11 03:24:52;;;;;;;7.90;2.28;;;11.00;99.90;;;9.86;100.00;101693.13;4780627;29;20054;-85
2023/08/11 03:27:43;;;;;;;7.85;2.08;;;;;;;9.78;100.00;101698.59;4726950;29;20129;-84
2023/08/11 03:30:21;;;;;;;16.67;3.83;;;;;;;9.71;100.00;101688.28;4741881;29;20431;-84
2023/08/11 03:32:51;;;;;;;9.95;2.65;;;;;;;9.64;100.00;101691.06;4771885;29;20047;-85
2023/08/11 03:35:25;;;;;;;6.55;1.98;;;;;;;9.61;100.00;101693.81;4769688;29;20530;-85
2023/08/11 03:37:52;;;;;;;13.95;4.07;;;;;;;9.58;100.00;101687.75;4780161;29;20176;-85
2023/08/11 03:40:30;;;;;;;18.77;3.92;;;;;;;9.56;100.00;101687.78;4789452;29;20604;-84
2023/08/11 03:43:31;;;;;;;10.07;2.38;;;;;;;9.53;100.00;101693.16;4855093;29;20063;-84
2023/08/11 03:46:21;;;;;;;12.43;2.20;;;;;;;9.49;100.00;101680.13;4887980;28;20054;-85
2023/08/11 03:48:50;;;;;;;1.88;1.08;;;;;;;9.39;100.00;101698.75;4892559;29;20044;-85
2023/08/11 03:51:41;;;;;;;6.90;0.70;;;10.50;99.90;;;9.34;100.00;101691.91;4899298;28;20042;-84
2023/08/11 03:54:22;;;;;;;3.30;0.80;;;;;;;9.30;100.00;101700.75;4894689;29;20044;-85
2023/08/11 03:56:51;;;;;;;4.70;1.30;;;;;;;9.26;100.00;101694.72;4899680;28;20042;-85
2023/08/11 03:59:41;;;;;;;3.58;1.00;;;10.40;99.90;;;9.28;100.00;101697.31;4875241;29;20040;-84
2023/08/11 04:02:42;;;;;;;16.23;3.00;;;;;;;9.27;100.00;101692.97;4868212;29;20039;-85
2023/08/11 04:05:34;;;;;;;8.18;3.00;;;10.50;99.90;;;9.32;100.00;101688.44;4839560;29;20072;-84
2023/08/11 04:08:04;;;;;;;16.08;2.90;;;;;;;9.44;100.00;101691.63;4791574;29;20056;-84
2023/08/11 04:10:42;;;;;;;20.08;4.32;;;;;;;9.57;100.00;101697.41;4844006;29;20082;-84
2023/08/11 04:13:21;;;;;;;15.82;3.90;;;;;;;9.67;100.00;101694.53;4833137;29;20041;-86
2023/08/11 04:16:16;;;;;;;16.23;3.63;;;10.80;99.90;;;9.80;100.00;101698.53;4849585;29;21012;-85
2023/08/11 04:18:41;;;;;;;18.85;4.38;;;10.80;99.90;;;9.88;100.00;101701.81;4813128;29;20037;-87
2023/08/11 04:24:35;;;;;;;18.00;4.00;;;;;;;10.23;100.00;101702.56;4735505;29;20552;-84
2023/08/11 04:28:02;;;;;;;25.42;4.43;;;12.00;99.90;;;12.30;100.00;101718.53;4742298;30;20040;-84
2023/08/11 04:30:51;;;;;;;9.30;2.85;;;;;;;15.26;97.49;101744.41;4676860;30;20041;-84
2023/08/11 04:33:34;;;;;;;13.93;2.80;;;16.00;99.90;;;17.72;79.08;101748.66;4688434;30;20040;-86
2023/08/11 04:36:04;;;;;;;14.75;2.72;;;;;;;19.57;68.69;101769.78;4699045;30;20047;-84
2023/08/11 04:38:42;;;;;;;13.85;2.42;;;;;;;20.89;62.69;101779.22;4670302;30;20057;-84
2023/08/11 04:41:44;;;;;;;12.07;2.28;;;20.60;99.90;;;22.42;57.96;101801.50;4701250;30;20037;-85
2023/08/11 04:44:23;;;;;;;10.98;2.70;;;;;;;23.94;54.76;101814.97;4722422;29;20052;-85
2023/08/11 04:47:31;;;;;;;11.55;2.20;;;;;;;22.65;55.52;101799.63;4747347;30;20060;-85
2023/08/11 04:50:12;;;;;;;10.38;2.22;;;;;;;24.80;52.04;101839.75;4655831;30;20056;-85
2023/08/11 04:52:41;;;;;;;7.53;2.05;;;;;;;26.38;49.18;101860.16;4648815;30;20042;-85
2023/08/11 04:55:16;;;;;;;8.15;1.80;;;;;;;27.44;46.55;101875.16;4634967;30;20037;-84
2023/08/11 04:57:41;;;;;;;17.40;2.40;;;25.40;99.90;;;28.90;44.63;101884.44;4617191;30;20089;-84
2023/08/11 05:00:41;;;;;;;7.10;1.90;;;;;;;30.85;42.19;101907.19;4621385;30;20075;-85
2023/08/11 05:03:33;;;;;;;10.00;2.03;;;27.60;99.10;;;31.88;40.02;101916.09;4680216;30;20052;-84
2023/08/11 05:05:59;;;;;;;8.68;1.70;;;28.70;99.40;;;33.06;37.84;101939.91;4891857;23;20039;-75
2023/08/11 05:08:24;;;;;;;7.35;1.80;;;29.60;97.60;;;33.39;36.85;101949.50;4929691;28;20530;-74
2023/08/11 05:10:50;;;;;;;9.55;1.83;;;28.90;97.00;;;29.29;41.40;101903.75;4920855;28;20748;-75
2023/08/11 05:13:19;;;;;;;17.92;2.22;;;27.70;97.00;;;26.87;45.10;101875.31;4915724;29;20036;-75
2023/08/11 05:15:44;;;;;;;10.48;1.75;;;26.40;98.70;;;25.26;48.07;101853.63;4914327;28;20080;-75
2023/08/11 05:18:10;;;;;;;8.45;1.73;;;25.10;99.80;;;23.81;50.91;101844.75;4907876;28;20558;-75
2023/08/11 05:20:36;;;;;;;13.15;1.98;;;24.00;99.90;;;23.01;52.67;101827.19;4913076;28;20047;-75
2023/08/11 05:23:03;;;;;;;8.65;2.17;;;23.30;99.90;;;23.32;52.48;101827.34;4932917;28;20058;-75
2023/08/11 05:25:29;;;;;;;6.28;1.55;;;23.10;99.90;;;25.25;49.35;101857.28;4892333;28;20032;-75
2023/08/11 05:28:02;;;;;;;10.02;2.40;;;23.70;99.90;;;26.42;46.70;101873.38;4921952;28;20154;-75
2023/08/11 05:30:28;;;;;;;8.57;2.13;;;24.00;99.90;;;25.82;48.02;101870.94;4906130;28;20050;-75
2023/08/11 05:32:55;;;;;;;14.43;1.95;;;24.90;99.90;;;28.94;43.07;101908.38;4937948;28;20081;-75
2023/08/11 05:35:20;;;;;;;10.85;1.60;;;25.60;99.90;;;28.25;43.89;101901.19;4912932;28;20628;-75
2023/08/11 05:37:49;;;;;;;11.50;2.10;;;25.80;99.90;;;26.82;45.31;101889.28;4928532;28;20031;-75
2023/08/11 05:40:16;;;;;;;14.63;2.40;;;25.30;99.90;;;25.05;48.50;101862.59;4907111;28;20040;-75
2023/08/11 05:42:42;;;;;;;10.88;2.53;;;24.60;99.90;;;23.75;50.31;101853.28;4929102;28;20031;-75
2023/08/11 05:45:09;;;;;;;7.78;1.98;;;23.80;99.90;;;23.26;51.11;101844.84;4912553;28;20428;-75
2023/08/11 05:47:34;;;;;;;13.27;2.88;;;23.20;99.90;;;24.28;51.00;101860.47;4936305;28;20086;-75
2023/08/11 05:50:00;;;;;;;10.73;2.60;;;23.00;99.90;;;23.63;50.79;101847.13;4927968;28;20143;-75
2023/08/11 05:52:28;;;;;;;10.07;2.67;;;22.90;99.90;;;23.82;50.80;101850.97;4914413;28;20087;-75
2023/08/11 05:54:54;;;;;;;12.13;2.45;;;23.50;99.90;;;28.30;43.95;101917.81;4916419;28;20070;-75
2023/08/11 05:57:20;;;;;;;12.38;2.17;;;25.00;99.90;;;31.32;38.84;101959.84;4890180;28;20059;-75
2023/08/11 05:59:46;;;;;;;12.75;2.50;;;27.00;99.90;;;33.59;35.82;101986.09;4922434;28;20035;-75
2023/08/11 06:02:12;;;;;;;11.40;2.05;;;28.80;97.80;;;34.60;33.91;101996.03;4922030;28;20099;-75
2023/08/11 06:04:38;;;;;;;8.00;2.10;;;30.30;96.20;;;36.10;31.86;102016.22;4935232;28;20035;-75
2023/08/11 06:07:03;;;;;;;9.48;1.80;;;31.50;94.60;;;37.12;30.35;102027.72;4915326;29;20036;-76
2023/08/11 06:09:29;;;;;;;5.82;1.60;;;31.50;93.60;;;35.89;31.67;102011.78;4924323;28;20430;-75
2023/08/11 06:11:55;;;;;;;8.65;2.15;;;32.50;92.20;;;34.14;33.68;102010.19;4898094;28;20039;-75
2023/08/11 06:14:23;;;;;;;7.60;2.30;;;32.10;91.90;;;33.34;34.52;102004.69;4895583;28;20035;-75
2023/08/11 06:16:49;;;;;;;9.20;2.30;;;31.70;92.20;;;33.17;34.35;102004.03;4917930;28;20407;-75
2023/08/11 06:19:16;;;;;;;7.97;1.73;;;31.80;92.40;;;35.57;32.51;102029.78;4901191;28;20035;-75
2023/08/11 06:21:42;;;;;;;8.13;2.08;;;32.60;92.10;;;37.24;30.70;102047.13;4871294;29;20443;-75
2023/08/11 06:24:08;;;;;;;7.18;1.73;;;33.70;90.90;;;38.15;29.38;102057.84;4920884;28;20034;-75
2023/08/11 06:26:37;;;;;;;8.82;2.40;;;34.60;89.00;;;38.68;29.13;102051.03;4933635;28;20027;-75
2023/08/11 06:29:04;;;;;;;7.68;1.92;;;35.60;86.90;;;39.94;27.75;102064.34;4899245;28;20035;-76
2023/08/11 06:31:31;;;;;;;8.95;2.05;;;36.40;84.90;;;39.57;28.01;102053.38;4915182;28;20038;-75
2023/08/11 06:33:57;;;;;;;9.02;1.48;;;36.80;82.30;;;39.01;27.98;102049.00;4903257;28;20131;-75
2023/08/11 06:36:23;;;;;;;8.80;1.90;;;36.70;80.90;;;38.52;28.00;102044.22;4910982;29;20436;-76
2023/08/11 06:38:48;;;;;;;7.88;2.05;;;36.70;80.50;;;37.91;28.24;102047.63;4914596;29;20063;-75
2023/08/11 06:41:16;;;;;;;5.95;1.92;;;36.20;79.60;;;36.59;29.58;102025.06;4901370;29;20147;-75
2023/08/11 06:43:47;;;;;;;6.65;1.88;;;35.60;79.10;;;35.05;30.84;102007.47;4938084;28;20036;-75
2023/08/11 06:46:14;;;;;;;6.47;1.50;;;34.70;79.40;;;34.45;31.67;101979.72;4904542;28;20574;-75
2023/08/11 06:48:40;;;;;;;9.35;1.70;;;34.50;79.00;;;35.48;31.79;101991.63;4926907;28;20070;-75
2023/08/11 06:51:08;;;;;;;6.40;1.58;;;34.20;81.50;;;34.59;31.92;101973.31;4896854;28;20042;-76
2023/08/11 06:53:36;;;;;;;5.88;1.30;;;34.20;82.00;;;34.40;31.58;101977.59;4915182;28;20466;-75
2023/08/11 06:56:02;;;;;;;5.57;1.42;;;33.60;79.60;;;33.49;32.91;101969.16;4899931;28;20038;-76
2023/08/11 06:58:28;;;;;;;7.63;1.75;;;33.00;81.80;;;32.60;33.76;101958.34;4926977;29;20376;-75
2023/08/11 07:00:54;;;;;;;4.25;1.42;;;32.80;82.60;;;33.84;32.08;101961.13;4897766;28;20490;-75
2023/08/11 07:03:20;;;;;;;10.43;1.80;;;33.00;83.00;;;34.14;32.25;101972.78;4909214;28;20034;-75
2023/08/11 07:05:45;;;;;;;5.20;1.50;;;33.40;81.90;;;34.82;31.31;101975.78;4899948;28;20046;-75
2023/08/11 07:08:14;;;;;;;8.82;1.23;;;33.70;81.60;;;34.47;31.69;101973.03;4916262;28;20050;-75
2023/08/11 07:10:39;;;;;;;5.75;1.67;;;33.70;79.20;;;33.67;32.65;101977.78;4889629;29;20405;-75
2023/08/11 07:13:05;;;;;;;5.47;1.50;;;33.60;79.30;;;34.00;31.79;101962.75;4928499;28;20038;-75
2023/08/11 07:15:31;;;;;;;4.97;1.30;;;33.50;78.20;;;34.27;30.39;101981.06;4914205;29;20134;-75
2023/08/11 07:17:57;;;;;;;6.03;1.48;;;33.70;77.30;;;34.03;30.39;101987.78;4919402;29;20117;-75
2023/08/11 07:20:22;;;;;;;6.30;1.23;;;33.40;76.90;;;33.20;31.17;101978.28;4925845;28;20078;-75
2023/08/11 07:22:48;;;;;;;4.53;0.90;;;33.10;77.20;;;32.78;31.89;101977.91;4894216;29;20118;-75
2023/08/11 07:25:16;;;;;;;7.47;1.30;;;32.70;77.30;;;32.33;32.34;101962.50;4941686;28;20225;-75
2023/08/11 07:27:45;;;;;;;4.50;1.48;;;32.20;76.90;;;31.78;32.42;101950.91;4903633;28;20043;-75
2023/08/11 07:30:11;;;;;;;5.68;1.17;;;31.80;79.40;;;31.46;33.62;101939.22;4920320;28;20036;-75
2023/08/11 07:32:37;;;;;;;10.43;1.23;;;31.40;80.60;;;30.96;34.64;101926.88;4930129;29;20130;-75
2023/08/11 07:35:03;;;;;;;7.82;1.70;;;31.00;79.70;;;30.40;34.86;101911.41;4899867;28;20042;-75
2023/08/11 07:37:29;;;;;;;11.15;1.48;;;30.60;81.00;;;30.30;35.04;101905.31;4893136;28;20032;-75
2023/08/11 07:39:54;;;;;;;6.20;1.15;;;30.50;83.00;;;30.72;35.78;101900.63;4923861;28;20613;-75
2023/08/11 07:42:20;;;;;;;5.55;1.20;;;30.60;82.90;;;30.85;35.28;101906.34;4926467;28;20170;-75
2023/08/11 07:44:46;;;;;;;4.55;1.20;;;30.90;82.10;;;31.44;34.38;101917.59;4914708;29;20029;-75
2023/08/11 07:47:12;;;;;;;4.22;0.93;;;31.30;80.30;;;32.00;33.08;101919.25;4888022;28;20507;-75
2023/08/11 07:49:37;;;;;;;8.25;1.25;;;31.60;81.10;;;32.16;34.26;101923.69;4926383;28;20175;-75
2023/08/11 07:52:03;;;;;;;6.10;1.30;;;32.20;81.40;;;33.29;32.60;101937.03;4932218;28;20119;-75
2023/08/11 07:54:29;;;;;;;7.13;1.33;;;32.90;79.30;;;34.03;31.76;101946.78;4884318;28;20220;-75
2023/08/11 07:56:55;;;;;;;5.18;1.13;;;34.00;78.30;;;35.26;30.22;101960.84;4934713;28;20090;-75
2023/08/11 07:59:21;;;;;;;5.82;1.33;;;34.90;75.70;;;35.63;29.41;101974.19;4918863;28;20624;-75
2023/08/11 08:01:54;;;;;;;6.18;1.73;;;35.50;74.80;;;36.18;29.04;101988.63;4949606;28;20046;-75
2023/08/11 08:04:20;;;;;;;4.32;1.30;;;36.00;74.70;;;36.34;29.28;102001.88;4920008;28;20035;-75
2023/08/11 08:06:46;;;;;;;4.75;1.30;;;36.30;73.40;;;36.47;28.53;102001.03;4909560;28;20188;-75
2023/08/11 08:09:18;;;;;;;9.00;1.30;;;36.40;73.20;;;36.64;29.14;101995.13;4895318;28;20043;-75
2023/08/11 08:11:45;;;;;;;9.63;1.63;;;36.40;72.90;;;35.88;29.99;101999.13;4931497;28;20046;-75
2023/08/11 08:14:12;;;;;;;4.35;1.20;;;35.80;73.00;;;34.95;30.87;101977.75;4925022;28;20039;-75
2023/08/11 08:16:41;;;;;;;5.85;1.50;;;35.20;73.10;;;34.28;30.48;101960.91;4901522;28;20031;-76
2023/08/11 08:19:11;;;;;;;9.00;1.40;;;34.40;73.40;;;33.32;31.87;101945.88;4896910;28;20066;-75
2023/08/11 08:21:37;;;;;;;5.22;1.35;;;33.50;74.80;;;32.38;33.99;101930.97;4926059;29;20130;-75
2023/08/11 08:24:04;;;;;;;6.55;1.30;;;32.60;77.80;;;31.59;35.17;101906.78;4923961;28;20498;-75
2023/08/11 08:26:36;;;;;;;5.00;1.52;;;31.90;78.20;;;31.03;35.55;101884.34;4941195;28;20050;-75
2023/08/11 08:29:04;;;;;;;8.00;1.20;;;31.30;79.40;;;30.76;35.87;101878.34;4900441;28;20035;-75
2023/08/11 08:31:30;;;;;;;6.15;1.60;;;31.00;80.00;;;30.48;35.71;101872.50;4898831;29;20050;-75
2023/08/11 08:33:55;;;;;;;4.55;1.30;;;30.60;78.90;;;30.03;36.02;101861.19;4923928;28;20035;-76
2023/08/11 08:36:22;;;;;;;4.85;1.20;;;30.40;81.40;;;30.19;36.48;101854.88;4928851;28;20550;-75
2023/08/11 08:38:48;;;;;;;4.55;1.20;;;30.30;82.50;;;30.23;36.35;101855.38;4930896;28;20098;-75
2023/08/11 08:41:20;;;;;;;5.05;1.15;;;30.30;81.50;;;30.39;35.90;101854.50;4918650;29;20593;-76
2023/08/11 08:43:47;;;;;;;5.40;1.17;;;30.40;80.60;;;30.80;35.69;101868.81;4902411;29;20062;-74
2023/08/11 08:46:16;;;;;;;4.68;1.30;;;30.80;81.70;;;31.53;35.54;101874.84;4926624;28;20039;-76
2023/08/11 08:48:52;;;;;;;8.02;1.15;;;31.20;81.30;;;31.86;34.98;101880.03;4900673;28;20066;-76
2023/08/11 08:51:18;;;;;;;;;;;31.30;82.20;;;31.10;34.35;101882.59;4935256;28;20503;-75
2023/08/11 08:53:44;;;;;;;5.97;1.13;;;31.00;76.70;;;30.43;35.34;101864.88;4923592;29;19915;-75
2023/08/11 08:56:09;;;;;;;5.90;1.10;;;30.50;77.80;;;29.72;36.19;101860.22;4894806;29;20047;-75
2023/08/11 08:58:41;;;;;;;4.80;1.33;;;30.00;79.80;;;29.19;37.46;101836.06;4916732;28;20110;-75
2023/08/11 09:01:09;;;;;;;4.93;1.52;;;29.60;82.40;;;28.78;39.00;101832.41;4899812;29;20038;-75
2023/08/11 09:03:37;;;;;;;4.93;1.42;;;29.20;82.80;;;28.28;39.08;101825.91;4913142;28;20050;-75
2023/08/11 09:06:05;;;;;;;3.35;1.33;;;28.90;83.50;;;28.16;39.43;101821.75;4915013;28;20419;-76
2023/08/11 09:08:35;;;;;;;5.35;1.40;;;28.70;81.70;;;28.04;38.67;101821.19;4910974;29;20058;-75
2023/08/11 09:11:01;;;;;;;8.05;1.15;;;28.50;85.00;;;27.93;40.38;101816.91;4918413;28;20043;-76
2023/08/11 09:13:27;;;;;;;5.53;1.40;;;28.40;85.10;;;27.73;41.03;101809.94;4943037;28;20073;-75
2023/08/11 09:15:56;;;;;;;5.03;1.10;;;28.10;84.80;;;27.45;40.79;101804.69;4911586;28;20059;-75
2023/08/11 09:18:23;;;;;;;6.80;1.27;;;27.90;85.00;;;27.19;40.59;101807.25;4918852;28;20125;-75
2023/08/11 09:20:49;;;;;;;3.78;1.10;;;27.80;84.20;;;27.22;41.66;101806.16;4915556;29;20561;-75
2023/08/11 09:23:19;;;;;;;2.80;1.00;;;27.80;84.20;;;27.16;40.80;101803.00;4947464;28;20043;-76
2023/08/11 09:25:45;;;;;;;4.07;1.10;;;27.50;84.80;;;26.83;40.88;101793.75;4900795;29;20083;-77
2023/08/11 09:28:19;;;;;;;2.63;0.98;;;27.30;84.40;;;26.19;41.71;101781.94;4907940;28;20083;-76
2023/08/11 09:30:48;;;;;;;3.17;1.17;;;27.00;87.10;;;26.00;42.94;101782.88;4923535;29;20036;-76
2023/08/11 09:33:14;;;;;;;3.72;1.20;;;26.70;87.50;;;25.70;43.47;101770.41;4926431;28;20044;-76
2023/08/11 09:35:41;;;;;;;5.38;1.45;;;26.60;87.90;;;25.88;43.12;101781.31;4911782;28;20491;-76
2023/08/11 09:38:08;;;;;;;3.08;1.10;;;26.60;89.80;;;26.01;42.94;101781.88;4915632;28;20047;-76
2023/08/11 09:40:35;;;;;;;6.38;1.55;;;26.60;90.00;;;26.06;44.01;101781.44;4927992;29;20040;-76
2023/08/11 09:43:01;;;;;;;7.78;1.05;;;26.70;89.00;;;26.21;43.28;101784.50;4925969;28;20569;-76
2023/08/11 09:45:27;;;;;;;6.55;1.42;;;26.70;89.10;;;26.21;43.80;101788.06;4898030;28;20055;-76
2023/08/11 09:47:56;;;;;;;4.20;1.17;;;26.90;85.30;;;26.37;41.86;101790.09;4925490;28;20035;-76
2023/08/11 09:50:28;;;;;;;2.97;1.27;;;26.90;86.50;;;26.44;41.74;101795.78;4907956;28;20043;-76
2023/08/11 09:53:00;;;;;;;9.95;1.45;;;27.00;88.20;;;26.55;41.65;101798.28;4907596;28;20126;-76
2023/08/11 09:55:28;;;;;;;4.82;1.13;;;27.10;89.10;;;26.57;42.54;101790.91;4930481;29;20504;-76
2023/08/11 09:57:56;;;;;;;5.60;1.17;;;27.20;89.10;;;26.65;42.44;101788.28;4896878;28;20024;-76
2023/08/11 10:00:23;;;;;;;4.03;1.10;;;27.30;84.60;;;26.77;40.78;101794.34;4901779;29;20047;-76
2023/08/11 10:03:08;;;;;;;4.25;1.10;;;27.30;85.80;;;26.84;40.42;101803.53;4913558;28;20051;-76
2023/08/11 10:05:39;;;;;;;2.95;0.90;;;27.40;89.10;;;26.88;42.26;101793.28;4931152;28;20087;-77
2023/08/11 10:08:12;;;;;;;2.53;1.10;;;27.20;86.10;;;26.59;41.96;101787.06;4923916;28;20039;-76
2023/08/11 10:10:42;;;;;;;1.92;0.82;;;27.30;86.30;;;26.75;41.01;101789.09;4924564;29;20031;-75
2023/08/11 10:13:26;;;;;;;4.63;1.00;;;27.40;86.80;;;26.86;40.19;101792.56;4941385;28;20409;-76
2023/08/11 10:15:57;;;;;;;12.60;1.25;;;27.40;83.50;;;27.00;39.25;101802.88;4921673;28;20118;-76
2023/08/11 10:18:24;;;;;;;2.17;0.90;;;27.50;84.10;;;27.09;40.34;101801.09;4919147;28;20066;-76
2023/08/11 10:20:51;;;;;;;2.28;0.80;;;27.60;85.20;;;27.08;40.82;101800.22;4926041;28;20061;-76
2023/08/11 10:23:18;;;;;;;3.85;0.80;;;27.60;84.40;;;27.09;40.95;101793.84;4946361;28;20043;-76
2023/08/11 10:25:49;;;;;;;2.85;1.08;;;27.60;83.70;;;27.14;39.37;101796.91;4942061;28;20039;-76
2023/08/11 10:28:16;;;;;;;3.08;1.00;;;27.70;84.50;;;27.24;39.82;101790.63;4905709;28;20522;-76
2023/08/11 10:30:42;;;;;;;4.57;1.40;;;27.80;84.40;;;27.35;39.02;101793.94;4922186;28;20051;-76
2023/08/11 10:33:09;;;;;;;4.45;1.02;;;27.90;84.00;;;27.41;39.07;101797.88;4930487;28;20046;-76
2023/08/11 10:35:58;;;;;;;2.08;1.10;;;28.00;82.20;;;27.50;38.32;101802.34;4923404;28;20039;-76
2023/08/11 10:38:34;;;;;;;2.30;0.70;;;28.00;83.00;;;27.63;38.85;101801.09;4932706;28;20078;-76
2023/08/11 10:41:08;;;;;;;3.13;0.70;;;28.10;82.10;;;27.73;38.61;101799.13;4908508;28;20648;-76
2023/08/11 10:43:41;;;;;;;1.58;0.80;;;28.20;79.20;;;27.53;37.22;101799.31;4938959;28;20047;-76
2023/08/11 10:46:42;;;;;;;1.90;1.10;;;28.10;79.30;;;27.40;36.82;101796.16;4913781;28;20071;-76
2023/08/11 10:49:07;;;;;;;1.23;0.60;;;28.00;84.80;;;27.22;38.76;101785.38;4849978;29;20059;-76
2023/08/11 10:51:41;;;;;;;1.42;0.70;;;27.90;81.30;;;27.36;38.23;101786.66;4860039;29;20182;-75
2023/08/11 10:54:09;;;;;;;0.60;0.57;;;28.00;79.70;;;27.45;37.35;101791.16;4857884;29;20044;-76
2023/08/11 10:56:41;;;;;;;1.10;0.80;;;28.10;81.30;;;27.56;37.91;101801.72;4839615;29;20049;-76
2023/08/11 10:59:22;;;;;;;2.95;0.80;;;28.10;84.00;;;27.59;39.31;101793.28;4849521;29;20045;-77
2023/08/11 11:01:53;;;;;;;3.80;0.70;;;28.10;81.30;;;27.69;38.04;101803.16;4846070;29;20041;-77
2023/08/11 11:04:30;;;;;;;2.28;0.80;;;28.30;81.00;;;27.89;37.52;101814.66;4850272;29;20117;-76
2023/08/11 11:07:01;;;;;;;2.17;0.80;;;28.40;81.70;;;27.93;37.90;101816.91;4848512;29;20462;-77
2023/08/11 11:09:27;;;;;;;2.10;0.77;;;28.40;83.80;;;28.12;38.21;101812.25;4836555;29;20052;-76
2023/08/11 11:11:56;;;;;;;5.15;1.10;;;28.60;82.40;;;28.36;37.85;101817.81;4846208;29;20120;-77
2023/08/11 11:14:25;;;;;;;1.95;1.00;;;28.80;82.90;;;28.44;38.15;101819.69;4839935;29;20569;-77